createdAt,value
2019-03-01T00:01:25.962Z,152.07
2019-03-01T00:04:22.378Z,152.25
2019-03-01T00:07:12.036Z,151.65
2019-03-01T00:10:19.516Z,150.55
2019-03-01T00:13:29.450Z,150.70
2019-03-01T00:16:50.795Z,151.68
2019-03-01T00:20:14.052Z,149.80
2019-03-01T00:23:17.778Z,151.40
2019-03-01T00:26:12.985Z,152.17
2019-03-01T00:29:22.833Z,151.02
2019-03-01T00:32:20.865Z,151.25
2019-03-01T00:35:20.251Z,150.85
2019-03-01T00:38:38.679Z,152.10
2019-03-01T00:41:59.325Z,152.05
2019-03-01T00:44:40.888Z,154.20
2019-03-01T00:47:14.951Z,152.57
2019-03-01T00:49:42.072Z,149.65
2019-03-01T00:52:10.151Z,152.07
2019-03-01T00:54:37.254Z,151.80
2019-03-01T00:57:06.363Z,151.57
2019-03-01T00:59:35.294Z,152.00
2019-03-01T01:02:04.323Z,151.68
2019-03-01T01:04:32.545Z,149.90
2019-03-01T01:06:59.650Z,151.85
2019-03-01T01:09:27.687Z,152.35
2019-03-01T01:11:54.809Z,152.05
2019-03-01T01:14:22.093Z,150.27
2019-03-01T01:16:49.240Z,150.75
2019-03-01T01:19:16.343Z,151.12
2019-03-01T01:21:43.448Z,151.12
2019-03-01T01:24:10.556Z,150.78
2019-03-01T01:26:37.685Z,150.78
2019-03-01T01:29:04.999Z,151.40
2019-03-01T01:31:35.525Z,153.38
2019-03-01T01:34:04.040Z,150.22
2019-03-01T01:36:32.522Z,150.62
2019-03-01T01:39:00.737Z,151.65
2019-03-01T01:41:27.871Z,151.60
2019-03-01T01:43:55.018Z,151.12
2019-03-01T01:46:22.104Z,150.90
2019-03-01T01:48:53.386Z,152.80
2019-03-01T01:51:20.497Z,152.00
2019-03-01T01:53:48.030Z,153.27
2019-03-01T01:56:18.423Z,152.38
2019-03-01T01:58:45.684Z,150.45
2019-03-01T02:01:12.854Z,150.78
2019-03-01T02:03:40.096Z,151.12
2019-03-01T02:06:07.309Z,151.07
2019-03-01T02:08:34.529Z,151.12
2019-03-01T02:11:01.777Z,150.57
2019-03-01T02:13:28.897Z,151.97
2019-03-01T02:15:56.021Z,151.40
2019-03-01T02:18:28.854Z,151.02
2019-03-01T02:20:56.153Z,152.35
2019-03-01T02:23:25.165Z,151.50
2019-03-01T02:25:52.803Z,152.53
2019-03-01T02:28:20.024Z,151.68
2019-03-01T02:30:48.569Z,151.02
2019-03-01T02:33:16.017Z,151.60
2019-03-01T02:35:45.921Z,151.87
2019-03-01T02:38:13.111Z,152.30
2019-03-01T02:40:40.239Z,152.95
2019-03-01T02:43:07.331Z,152.40
2019-03-01T02:45:34.501Z,153.45
2019-03-01T02:48:01.836Z,152.53
2019-03-01T02:50:32.551Z,152.75
2019-03-01T02:52:59.700Z,154.20
2019-03-01T02:55:28.685Z,152.05
2019-03-01T02:57:55.844Z,154.20
2019-03-01T03:00:27.164Z,153.95
2019-03-01T03:02:56.275Z,153.80
2019-03-01T03:05:23.411Z,153.70
2019-03-01T03:07:55.248Z,153.62
2019-03-01T03:10:24.811Z,153.27
2019-03-01T03:13:03.790Z,152.22
2019-03-01T03:15:33.623Z,151.68
2019-03-01T03:18:00.726Z,152.38
2019-03-01T03:20:27.833Z,154.30
2019-03-01T03:22:55.001Z,153.42
2019-03-01T03:25:22.169Z,152.80
2019-03-01T03:27:49.258Z,151.20
2019-03-01T03:30:16.619Z,153.35
2019-03-01T03:32:46.399Z,153.12
2019-03-01T03:35:13.558Z,152.55
2019-03-01T03:37:40.769Z,153.10
2019-03-01T03:40:08.459Z,152.53
2019-03-01T03:42:35.693Z,152.25
2019-03-01T03:45:03.661Z,152.27
2019-03-01T03:47:31.160Z,152.93
2019-03-01T03:49:59.985Z,153.02
2019-03-01T03:52:28.860Z,151.87
2019-03-01T03:54:55.987Z,152.80
2019-03-01T03:57:23.134Z,152.97
2019-03-01T03:59:50.284Z,154.80
2019-03-01T04:02:17.423Z,153.00
2019-03-01T04:04:44.516Z,154.20
2019-03-01T04:07:11.776Z,154.78
2019-03-01T04:09:38.894Z,153.25
2019-03-01T04:12:06.029Z,153.42
2019-03-01T04:14:33.156Z,153.85
2019-03-01T04:17:00.353Z,152.95
2019-03-01T04:19:27.791Z,153.53
2019-03-01T04:21:54.905Z,154.42
2019-03-01T04:24:22.016Z,152.43
2019-03-01T04:26:49.118Z,153.68
2019-03-01T04:29:16.276Z,152.47
2019-03-01T04:31:43.385Z,152.47
2019-03-01T04:34:10.522Z,152.80
2019-03-01T04:36:37.671Z,153.60
2019-03-01T04:39:05.938Z,151.57
2019-03-01T04:41:33.518Z,152.30
2019-03-01T04:44:00.732Z,154.07
2019-03-01T04:46:27.829Z,153.55
2019-03-01T04:48:54.934Z,152.80
2019-03-01T04:51:22.123Z,152.85
2019-03-01T04:53:49.270Z,154.47
2019-03-01T04:56:16.383Z,151.15
2019-03-01T04:58:43.518Z,150.20
2019-03-01T05:01:11.908Z,151.53
2019-03-01T05:03:38.988Z,151.25
2019-03-01T05:06:07.891Z,153.62
2019-03-01T05:08:34.990Z,152.07
2019-03-01T05:11:02.132Z,152.07
2019-03-01T05:13:29.264Z,154.87
2019-03-01T05:15:56.380Z,152.47
2019-03-01T05:18:23.506Z,152.38
2019-03-01T05:20:50.617Z,152.87
2019-03-01T05:23:17.757Z,153.23
2019-03-01T05:25:44.843Z,151.90
2019-03-01T05:28:11.991Z,152.27
2019-03-01T05:30:39.103Z,152.15
2019-03-01T05:33:06.354Z,152.85
2019-03-01T05:35:33.494Z,152.12
2019-03-01T05:38:00.600Z,151.75
2019-03-01T05:40:27.799Z,154.03
2019-03-01T05:42:57.252Z,152.65
2019-03-01T05:45:24.829Z,153.50
2019-03-01T05:47:52.135Z,153.50
2019-03-01T05:50:19.395Z,152.97
2019-03-01T05:52:48.362Z,153.85
2019-03-01T05:55:15.502Z,154.60
2019-03-01T05:58:19.560Z,152.10
2019-03-01T06:00:46.654Z,154.42
2019-03-01T06:03:44.204Z,154.50
2019-03-01T06:06:13.299Z,151.22
2019-03-01T06:09:15.320Z,154.15
2019-03-01T06:12:14.830Z,153.45
2019-03-01T06:15:28.452Z,154.23
2019-03-01T06:18:40.323Z,152.82
2019-03-01T06:21:48.329Z,152.27
2019-03-01T06:24:40.531Z,152.85
2019-03-01T06:27:50.810Z,154.50
2019-03-01T06:30:38.817Z,152.38
2019-03-01T06:33:44.968Z,152.82
2019-03-01T06:36:22.214Z,151.40
2019-03-01T06:39:49.871Z,152.57
2019-03-01T06:42:57.094Z,151.70
2019-03-01T06:46:21.438Z,151.90
2019-03-01T06:48:55.950Z,151.90
2019-03-01T06:51:29.083Z,151.10
2019-03-01T06:53:55.270Z,151.12
2019-03-01T06:56:22.485Z,151.20
2019-03-01T06:58:52.901Z,151.40
2019-03-01T07:01:25.388Z,151.42
2019-03-01T07:03:57.205Z,153.25
2019-03-01T07:06:24.367Z,149.72
2019-03-01T07:08:51.471Z,150.03
2019-03-01T07:11:18.617Z,154.18
2019-03-01T07:13:45.721Z,153.57
2019-03-01T07:16:12.847Z,152.22
2019-03-01T07:18:39.999Z,153.32
2019-03-01T07:21:07.150Z,152.00
2019-03-01T07:23:42.585Z,154.18
2019-03-01T07:26:12.420Z,152.85
2019-03-01T07:28:39.864Z,152.45
2019-03-01T07:31:07.248Z,153.75
2019-03-01T07:33:34.533Z,152.50
2019-03-01T07:36:01.887Z,151.90
2019-03-01T07:38:29.267Z,152.72
2019-03-01T07:40:56.441Z,153.80
2019-03-01T07:43:23.573Z,153.32
2019-03-01T07:45:50.787Z,155.75
2019-03-01T07:48:19.124Z,151.85
2019-03-01T07:50:46.301Z,151.57
2019-03-01T07:53:13.607Z,155.22
2019-03-01T07:55:40.723Z,153.45
2019-03-01T07:58:07.815Z,153.02
2019-03-01T08:00:34.969Z,154.87
2019-03-01T08:03:02.073Z,152.78
2019-03-01T08:05:29.238Z,154.50
2019-03-01T08:07:59.710Z,152.97
2019-03-01T08:10:25.676Z,154.38
2019-03-01T08:12:52.771Z,153.57
2019-03-01T08:15:20.021Z,152.30
2019-03-01T08:17:47.148Z,151.53
2019-03-01T08:20:14.934Z,165.40
2019-03-01T08:22:48.513Z,154.27
2019-03-01T08:25:11.465Z,154.40
2019-03-01T08:27:41.963Z,153.57
2019-03-01T08:30:11.295Z,154.20
2019-03-01T08:32:38.803Z,152.27
2019-03-01T08:35:07.557Z,152.97
2019-03-01T08:37:35.064Z,152.20
2019-03-01T08:40:02.177Z,153.45
2019-03-01T08:42:32.713Z,154.42
2019-03-01T08:44:59.771Z,154.35
2019-03-01T08:47:29.195Z,151.75
2019-03-01T08:49:56.338Z,151.12
2019-03-01T08:52:23.460Z,153.95
2019-03-01T08:54:50.892Z,154.63
2019-03-01T08:57:18.013Z,152.93
2019-03-01T08:59:45.258Z,153.02
2019-03-01T09:02:12.385Z,153.97
2019-03-01T09:04:39.523Z,152.20
2019-03-01T09:07:06.690Z,152.05
2019-03-01T09:09:33.919Z,151.37
2019-03-01T09:12:01.088Z,152.32
2019-03-01T09:14:28.499Z,153.60
2019-03-01T09:16:55.584Z,154.12
2019-03-01T09:19:25.416Z,152.47
2019-03-01T09:21:51.891Z,150.93
2019-03-01T09:24:18.996Z,151.00
2019-03-01T09:26:46.152Z,151.60
2019-03-01T09:29:18.378Z,153.42
2019-03-01T09:31:46.741Z,149.80
2019-03-01T09:34:19.116Z,152.05
2019-03-01T09:36:54.957Z,151.60
2019-03-01T09:39:20.908Z,150.05
2019-03-01T09:41:48.023Z,154.27
2019-03-01T09:44:15.248Z,151.07
2019-03-01T09:46:42.614Z,150.35
2019-03-01T09:49:12.014Z,152.27
2019-03-01T09:51:39.418Z,150.03
2019-03-01T09:54:09.424Z,149.23
2019-03-01T09:56:36.678Z,151.15
2019-03-01T09:59:03.825Z,149.65
2019-03-01T10:01:31.085Z,148.62
2019-03-01T10:03:58.791Z,148.78
2019-03-01T10:06:25.939Z,148.70
2019-03-01T10:08:53.071Z,149.57
2019-03-01T10:11:20.263Z,149.72
2019-03-01T10:13:47.370Z,150.07
2019-03-01T10:16:14.589Z,149.80
2019-03-01T10:18:42.030Z,149.42
2019-03-01T10:21:09.253Z,149.93
2019-03-01T10:23:36.395Z,147.62
2019-03-01T10:26:03.701Z,149.23
2019-03-01T10:28:30.865Z,147.62
2019-03-01T10:30:58.134Z,149.85
2019-03-01T10:33:25.249Z,148.93
2019-03-01T10:35:52.360Z,148.87
2019-03-01T10:38:19.637Z,152.78
2019-03-01T10:40:46.748Z,150.35
2019-03-01T10:43:14.940Z,153.23
2019-03-01T10:45:42.072Z,153.38
2019-03-01T10:48:11.320Z,152.90
2019-03-01T10:50:38.449Z,154.57
2019-03-01T10:53:05.743Z,152.35
2019-03-01T10:55:33.514Z,153.30
2019-03-01T10:58:01.068Z,149.18
2019-03-01T11:00:28.501Z,147.50
2019-03-01T11:02:55.600Z,148.38
2019-03-01T11:05:23.351Z,149.42
2019-03-01T11:07:51.296Z,148.82
2019-03-01T11:10:20.811Z,151.78
2019-03-01T11:12:47.936Z,149.93
2019-03-01T11:15:15.222Z,149.40
2019-03-01T11:17:42.338Z,150.50
2019-03-01T11:20:10.437Z,150.60
2019-03-01T11:22:37.615Z,151.78
2019-03-01T11:25:06.216Z,153.93
2019-03-01T11:27:33.332Z,151.45
2019-03-01T11:30:00.463Z,151.87
2019-03-01T11:32:27.561Z,152.43
2019-03-01T11:34:58.367Z,155.80
2019-03-01T11:37:28.511Z,157.15
2019-03-01T11:39:55.632Z,151.65
2019-03-01T11:42:22.731Z,151.27
2019-03-01T11:44:49.936Z,152.85
2019-03-01T11:47:17.065Z,153.27
2019-03-01T11:49:44.204Z,153.27
2019-03-01T11:52:11.362Z,155.32
2019-03-01T11:54:38.505Z,152.30
2019-03-01T11:57:05.816Z,150.72
2019-03-01T11:59:33.009Z,156.28
2019-03-01T12:02:17.862Z,157.70
2019-03-01T12:05:05.989Z,154.25
2019-03-01T12:07:37.326Z,153.20
2019-03-01T12:10:07.137Z,154.82
2019-03-01T12:12:34.409Z,153.53
2019-03-01T12:15:01.467Z,154.78
2019-03-01T12:17:28.714Z,157.18
2019-03-01T12:19:55.922Z,156.22
2019-03-01T12:22:23.041Z,156.90
2019-03-01T12:24:50.272Z,156.55
2019-03-01T12:27:17.374Z,160.00
2019-03-01T12:29:44.498Z,160.32
2019-03-01T12:32:11.627Z,155.82
2019-03-01T12:34:40.034Z,162.55
2019-03-01T12:37:07.136Z,161.75
2019-03-01T12:39:34.329Z,160.65
2019-03-01T12:42:01.472Z,161.77
2019-03-01T12:44:28.605Z,160.45
2019-03-01T12:46:56.018Z,162.95
2019-03-01T12:49:23.176Z,162.65
2019-03-01T12:51:50.378Z,166.75
2019-03-01T12:54:17.520Z,165.45
2019-03-01T12:56:44.804Z,166.88
2019-03-01T12:59:11.926Z,161.18
2019-03-01T13:01:39.052Z,165.75
2019-03-01T13:04:06.160Z,168.20
2019-03-01T13:06:35.379Z,169.30
2019-03-01T13:09:04.122Z,167.75
2019-03-01T13:11:33.129Z,164.52
2019-03-01T13:14:00.340Z,167.13
2019-03-01T13:16:33.004Z,173.68
2019-03-01T13:22:43.659Z,173.38
2019-03-01T13:25:11.927Z,174.00
2019-03-01T13:27:39.156Z,176.25
2019-03-01T13:30:09.328Z,173.85
2019-03-01T13:32:36.575Z,176.60
2019-03-01T13:35:04.788Z,176.05
2019-03-01T13:37:32.041Z,175.05
2019-03-01T13:39:59.166Z,173.35
2019-03-01T13:42:29.573Z,175.70
2019-03-01T13:44:56.711Z,177.02
2019-03-01T13:47:23.831Z,177.17
2019-03-01T13:49:51.013Z,179.53
2019-03-01T13:52:18.179Z,178.27
2019-03-01T13:54:46.199Z,182.02
2019-03-01T13:57:14.600Z,177.45
2019-03-01T13:59:43.943Z,179.75
2019-03-01T14:02:10.852Z,181.70
2019-03-01T14:04:40.342Z,180.55
2019-03-01T14:07:07.088Z,179.65
2019-03-01T14:09:34.510Z,174.70
2019-03-01T14:12:01.883Z,182.80
2019-03-01T14:14:29.280Z,177.95
2019-03-01T14:16:56.711Z,174.82
2019-03-01T14:19:23.829Z,182.17
2019-03-01T14:21:50.971Z,173.38
2019-03-01T14:24:18.188Z,185.32
2019-03-01T14:26:45.351Z,181.72
2019-03-01T14:29:12.831Z,172.50
2019-03-01T14:31:42.946Z,181.97
2019-03-01T14:34:11.606Z,178.70
2019-03-01T14:36:43.075Z,181.67
2019-03-01T14:39:15.609Z,173.38
2019-03-01T14:41:42.816Z,178.70
2019-03-01T14:44:09.991Z,186.45
2019-03-01T14:46:39.374Z,187.00
2019-03-01T14:49:06.710Z,187.62
2019-03-01T14:51:34.011Z,178.82
2019-03-01T14:54:01.413Z,178.70
2019-03-01T14:56:34.720Z,172.82
2019-03-01T14:59:07.392Z,178.35
2019-03-01T15:01:43.267Z,188.07
2019-03-01T15:04:10.457Z,180.05
2019-03-01T15:06:37.939Z,175.70
2019-03-01T15:09:06.635Z,181.75
2019-03-01T15:11:35.706Z,171.37
2019-03-01T15:14:02.806Z,181.65
2019-03-01T15:16:29.932Z,171.37
2019-03-01T15:18:57.256Z,176.37
2019-03-01T15:21:24.364Z,186.25
2019-03-01T15:23:56.343Z,177.30
2019-03-01T15:26:23.103Z,183.42
2019-03-01T15:28:55.288Z,178.20
2019-03-01T15:31:23.745Z,174.25
2019-03-01T15:33:50.897Z,182.32
2019-03-01T15:36:19.163Z,187.18
2019-03-01T15:38:46.299Z,183.62
2019-03-01T15:41:13.253Z,183.68
2019-03-01T15:43:40.206Z,180.82
2019-03-01T15:46:07.210Z,185.80
2019-03-01T15:48:37.692Z,184.03
2019-03-01T15:51:03.435Z,185.28
2019-03-01T15:53:30.505Z,180.20
2019-03-01T15:55:57.461Z,191.05
2019-03-01T15:58:24.416Z,181.35
2019-03-01T16:00:51.387Z,175.27
2019-03-01T16:03:18.336Z,177.25
2019-03-01T16:05:45.920Z,177.78
2019-03-01T16:08:13.032Z,196.00
2019-03-01T16:10:40.027Z,174.23
2019-03-01T16:13:08.423Z,175.38
2019-03-01T16:15:38.783Z,181.30
2019-03-01T16:18:04.741Z,191.50
2019-03-01T16:20:31.991Z,179.05
2019-03-01T16:22:58.991Z,180.57
2019-03-01T16:25:25.958Z,185.57
2019-03-01T16:27:54.368Z,174.23
2019-03-01T16:30:21.980Z,180.63
2019-03-01T16:32:50.412Z,179.20
2019-03-01T16:35:18.942Z,177.87
2019-03-01T16:37:47.895Z,179.30
2019-03-01T16:40:14.891Z,179.45
2019-03-01T16:42:42.045Z,173.05
2019-03-01T16:45:09.935Z,178.55
2019-03-01T16:47:38.279Z,181.28
2019-03-01T16:50:09.919Z,179.93
2019-03-01T16:52:36.617Z,179.38
2019-03-01T16:55:04.290Z,177.32
2019-03-01T16:57:31.440Z,180.22
2019-03-01T16:59:58.444Z,177.95
2019-03-01T17:02:25.530Z,179.10
2019-03-01T17:04:52.498Z,181.02
2019-03-01T17:07:21.512Z,180.78
2019-03-01T17:09:51.378Z,175.93
2019-03-01T17:12:17.540Z,180.72
2019-03-01T17:14:44.630Z,176.12
2019-03-01T17:17:11.587Z,175.27
2019-03-01T17:19:39.424Z,186.92
2019-03-01T17:22:06.598Z,186.67
2019-03-01T17:24:33.572Z,183.00
2019-03-01T17:27:01.973Z,183.70
2019-03-01T17:29:31.549Z,188.07
2019-03-01T17:31:58.798Z,177.53
2019-03-01T17:34:29.300Z,184.57
2019-03-01T17:36:56.090Z,180.95
2019-03-01T17:39:25.126Z,180.00
2019-03-01T17:41:51.899Z,181.40
2019-03-01T17:44:18.876Z,177.72
2019-03-01T17:46:45.817Z,185.05
2019-03-01T17:49:12.776Z,188.20
2019-03-01T17:51:39.762Z,182.43
2019-03-01T17:54:07.764Z,176.45
2019-03-01T17:56:36.618Z,183.50
2019-03-01T17:59:03.712Z,181.52
2019-03-01T18:01:30.698Z,181.50
2019-03-01T18:04:01.606Z,180.82
2019-03-01T18:06:26.844Z,179.93
2019-03-01T18:08:53.843Z,184.75
2019-03-01T18:11:20.800Z,179.55
2019-03-01T18:13:47.837Z,173.85
2019-03-01T18:16:14.777Z,174.32
2019-03-01T18:18:42.541Z,174.27
2019-03-01T18:21:10.202Z,172.05
2019-03-01T18:23:39.056Z,174.97
2019-03-01T18:26:06.084Z,173.35
2019-03-01T18:28:33.146Z,172.22
2019-03-01T18:31:00.135Z,171.57
2019-03-01T18:33:27.094Z,172.43
2019-03-01T18:39:31.780Z,172.10
2019-03-01T18:42:02.452Z,165.97
2019-03-01T18:44:30.029Z,167.43
2019-03-01T18:46:57.035Z,172.37
2019-03-01T18:49:24.019Z,166.65
2019-03-01T18:51:50.967Z,168.32
2019-03-01T18:54:18.399Z,164.10
2019-03-01T18:56:45.374Z,167.43
2019-03-01T18:59:12.349Z,168.22
2019-03-01T19:01:42.827Z,168.28
2019-03-01T19:04:08.771Z,168.75
2019-03-01T19:06:36.860Z,164.35
2019-03-01T19:09:05.856Z,164.55
2019-03-01T19:11:34.693Z,167.10
2019-03-01T19:14:02.992Z,167.57
2019-03-01T19:16:30.093Z,165.68
2019-03-01T19:18:57.161Z,165.30
2019-03-01T19:21:24.112Z,163.95
2019-03-01T19:23:51.097Z,164.75
2019-03-01T19:26:18.133Z,163.62
2019-03-01T19:28:45.068Z,165.55
2019-03-01T19:31:12.048Z,163.65
2019-03-01T19:33:41.498Z,161.95
2019-03-01T19:36:07.914Z,162.65
2019-03-01T19:38:35.086Z,161.88
2019-03-01T19:41:02.066Z,160.03
2019-03-01T19:43:29.132Z,158.90
2019-03-01T19:45:56.080Z,159.27
2019-03-01T19:48:23.064Z,157.67
2019-03-01T19:50:50.208Z,159.40
2019-03-01T19:53:17.275Z,157.10
2019-03-01T19:55:47.249Z,156.90
2019-03-01T19:58:13.182Z,159.03
2019-03-01T20:00:42.622Z,156.10
2019-03-01T20:03:10.071Z,155.78
2019-03-01T20:05:38.902Z,154.70
2019-03-01T20:08:05.866Z,154.75
2019-03-01T20:10:32.857Z,153.72
2019-03-01T20:12:59.845Z,156.07
2019-03-01T20:15:27.607Z,156.95
2019-03-01T20:17:54.631Z,154.57
2019-03-01T20:20:21.823Z,153.70
2019-03-01T20:22:50.505Z,153.97
2019-03-01T20:25:17.739Z,155.87
2019-03-01T20:27:44.754Z,154.10
2019-03-01T20:30:17.162Z,155.25
2019-03-01T20:32:47.541Z,153.45
2019-03-01T20:35:13.890Z,151.35
2019-03-01T20:37:41.035Z,154.07
2019-03-01T20:40:09.798Z,155.37
2019-03-01T20:42:36.809Z,152.93
2019-03-01T20:45:05.099Z,156.65
2019-03-01T20:47:33.997Z,153.40
2019-03-01T20:50:00.944Z,156.63
2019-03-01T20:52:27.892Z,156.07
2019-03-01T20:54:57.741Z,157.03
2019-03-01T20:57:26.726Z,156.12
2019-03-01T20:59:52.695Z,155.20
2019-03-01T21:02:19.686Z,155.10
2019-03-01T21:04:53.217Z,158.45
2019-03-01T21:07:16.506Z,159.78
2019-03-01T21:09:43.705Z,156.60
2019-03-01T21:12:11.931Z,159.90
2019-03-01T21:14:38.908Z,157.72
2019-03-01T21:17:05.864Z,159.45
2019-03-01T21:19:32.810Z,158.12
2019-03-01T21:22:01.529Z,155.48
2019-03-01T21:24:31.979Z,158.05
2019-03-01T21:26:58.745Z,156.87
2019-03-01T21:29:25.703Z,158.75
2019-03-01T21:31:52.701Z,159.18
2019-03-01T21:34:19.667Z,158.30
2019-03-01T21:36:46.655Z,160.18
2019-03-01T21:39:13.634Z,161.82
2019-03-01T21:41:41.465Z,161.85
2019-03-01T21:44:10.579Z,161.40
2019-03-01T21:46:38.337Z,160.85
2019-03-01T21:49:05.285Z,161.75
2019-03-01T21:51:34.840Z,159.65
2019-03-01T21:54:02.039Z,157.12
2019-03-01T21:56:30.294Z,151.75
2019-03-01T21:58:57.322Z,159.55
2019-03-01T22:01:24.284Z,159.43
2019-03-01T22:03:51.230Z,159.57
2019-03-01T22:06:20.645Z,162.12
2019-03-01T22:08:48.655Z,162.68
2019-03-01T22:11:15.947Z,159.05
2019-03-01T22:13:42.886Z,160.10
2019-03-01T22:16:09.866Z,158.35
2019-03-01T22:18:37.801Z,158.37
2019-03-01T22:21:04.755Z,162.00
2019-03-01T22:23:31.762Z,160.05
2019-03-01T22:25:58.717Z,160.15
2019-03-01T22:28:25.677Z,163.15
2019-03-01T22:30:52.661Z,161.20
2019-03-01T22:33:20.763Z,162.77
2019-03-01T22:35:48.475Z,162.92
2019-03-01T22:38:15.558Z,162.75
2019-03-01T22:40:42.511Z,163.68
2019-03-01T22:43:09.449Z,163.55
2019-03-01T22:45:36.459Z,162.53
2019-03-01T22:48:03.428Z,161.55
2019-03-01T22:50:30.385Z,162.03
2019-03-01T22:52:57.375Z,162.30
2019-03-01T22:55:24.331Z,163.72
2019-03-01T22:57:51.280Z,163.18
2019-03-01T23:01:20.471Z,164.52
2019-03-01T23:03:51.601Z,162.47
2019-03-01T23:06:19.173Z,163.50
2019-03-01T23:08:46.168Z,162.97
2019-03-01T23:11:13.111Z,166.10
2019-03-01T23:13:40.045Z,165.50
2019-03-01T23:16:07.039Z,165.73
2019-03-01T23:18:34.026Z,165.90
2019-03-01T23:21:01.926Z,165.07
2019-03-01T23:23:29.110Z,164.70
2019-03-01T23:25:56.534Z,167.35
2019-03-01T23:28:23.479Z,166.55
2019-03-01T23:30:50.481Z,165.97
2019-03-01T23:33:17.409Z,168.52
2019-03-01T23:35:44.478Z,167.35
2019-03-01T23:38:11.640Z,163.85
2019-03-01T23:40:40.316Z,165.20
2019-03-01T23:43:07.274Z,164.22
2019-03-01T23:45:34.251Z,163.97
2019-03-01T23:48:01.187Z,164.40
2019-03-01T23:50:28.145Z,167.37
2019-03-01T23:52:58.785Z,164.45
2019-03-01T23:55:24.039Z,165.00
2019-03-01T23:57:51.003Z,164.82
